createdAt,value
2022-12-15T00:01:42.485Z,19.83
2022-12-15T00:04:29.583Z,21.13
2022-12-15T00:12:38.148Z,23.27
2022-12-15T00:15:24.224Z,22.00
2022-12-15T00:18:10.065Z,31.53
2022-12-15T00:20:55.427Z,26.13
2022-12-15T00:23:40.444Z,24.67
2022-12-15T00:26:25.506Z,19.97
2022-12-15T00:29:11.684Z,23.07
2022-12-15T00:34:37.263Z,22.60
2022-12-15T00:37:23.005Z,35.00
2022-12-15T00:39:58.491Z,21.40
2022-12-15T00:42:26.325Z,22.43
2022-12-15T00:44:53.838Z,20.87
2022-12-15T00:47:21.844Z,24.57
2022-12-15T00:50:14.051Z,28.47
2022-12-15T00:58:55.587Z,28.33
2022-12-15T01:01:40.906Z,23.20
2022-12-15T01:04:26.187Z,25.10
2022-12-15T01:07:11.164Z,26.97
2022-12-15T01:09:56.564Z,23.63
2022-12-15T01:12:41.966Z,27.53
2022-12-15T01:21:05.291Z,23.90
2022-12-15T01:23:34.641Z,24.80
2022-12-15T01:26:04.088Z,23.23
2022-12-15T01:28:31.636Z,23.03
2022-12-15T01:30:59.420Z,21.00
2022-12-15T01:33:26.815Z,24.17
2022-12-15T01:35:59.166Z,22.03
2022-12-15T01:38:28.637Z,20.13
2022-12-15T01:46:57.242Z,28.03
2022-12-15T01:49:28.706Z,20.17
2022-12-15T01:52:00.908Z,29.93
2022-12-15T01:54:34.045Z,20.83
2022-12-15T01:57:05.387Z,25.97
2022-12-15T01:59:38.105Z,31.93
2022-12-15T02:02:06.594Z,21.03
2022-12-15T02:04:34.693Z,22.77
2022-12-15T02:12:13.405Z,24.83
2022-12-15T02:14:54.044Z,18.33
2022-12-15T02:17:37.246Z,18.23
2022-12-15T02:20:33.483Z,22.00
2022-12-15T02:23:37.443Z,19.87
2022-12-15T02:26:27.568Z,17.80
2022-12-15T02:31:50.969Z,27.90
2022-12-15T02:34:28.067Z,18.40
2022-12-15T02:36:59.741Z,15.37
2022-12-15T02:39:30.665Z,15.70
2022-12-15T02:41:58.447Z,22.87
2022-12-15T02:44:30.303Z,16.20
2022-12-15T02:47:14.546Z,14.37
2022-12-15T02:55:00.223Z,20.63
2022-12-15T02:57:38.086Z,22.10
2022-12-15T03:00:09.988Z,23.17
2022-12-15T03:02:40.785Z,14.47
2022-12-15T03:05:09.786Z,23.50
2022-12-15T03:07:37.108Z,22.93
2022-12-15T03:10:07.464Z,24.57
2022-12-15T03:20:30.744Z,19.10
2022-12-15T03:22:58.213Z,21.93
2022-12-15T03:25:25.664Z,18.20
2022-12-15T03:27:53.364Z,19.67
2022-12-15T03:30:24.744Z,18.40
2022-12-15T03:32:55.406Z,20.50
2022-12-15T03:35:22.704Z,19.90
2022-12-15T03:42:58.091Z,17.97
2022-12-15T03:45:27.613Z,18.03
2022-12-15T03:47:56.646Z,16.90
2022-12-15T03:50:26.040Z,21.20
2022-12-15T03:52:54.522Z,23.67
2022-12-15T03:55:22.935Z,25.63
2022-12-15T03:57:50.585Z,24.73
2022-12-15T04:02:54.715Z,30.10
2022-12-15T04:05:26.047Z,21.27
2022-12-15T04:07:53.805Z,16.27
2022-12-15T04:10:22.348Z,20.50
2022-12-15T04:12:49.863Z,18.83
2022-12-15T04:15:16.936Z,21.60
2022-12-15T04:17:44.297Z,21.20
2022-12-15T04:20:13.467Z,19.93
2022-12-15T04:28:03.898Z,20.10
2022-12-15T04:30:49.688Z,17.10
2022-12-15T04:33:36.236Z,18.67
2022-12-15T04:36:22.018Z,21.93
2022-12-15T04:39:07.156Z,19.70
2022-12-15T04:41:52.197Z,17.97
2022-12-15T04:44:38.678Z,17.27
2022-12-15T04:52:46.478Z,16.90
2022-12-15T04:55:31.844Z,19.23
2022-12-15T04:58:17.099Z,21.97
2022-12-15T05:01:01.992Z,20.33
2022-12-15T05:03:46.978Z,26.53
2022-12-15T05:06:32.219Z,15.10
2022-12-15T05:09:18.928Z,19.23
2022-12-15T05:17:27.928Z,22.30
2022-12-15T05:20:13.449Z,19.13
2022-12-15T05:22:58.928Z,14.63
2022-12-15T05:25:43.947Z,16.47
2022-12-15T05:28:32.585Z,14.57
2022-12-15T05:31:17.859Z,17.07
2022-12-15T05:38:52.118Z,13.53
2022-12-15T05:41:21.116Z,13.03
2022-12-15T05:43:48.730Z,13.83
2022-12-15T05:46:16.270Z,12.80
2022-12-15T05:48:44.265Z,15.67
2022-12-15T05:51:13.225Z,14.00
2022-12-15T05:53:42.262Z,15.70
2022-12-15T05:58:49.227Z,15.67
2022-12-15T06:01:18.491Z,16.27
2022-12-15T06:03:46.228Z,17.00
2022-12-15T06:06:14.263Z,16.03
2022-12-15T06:08:43.145Z,16.23
2022-12-15T06:11:13.010Z,14.93
2022-12-15T06:13:41.278Z,14.07
2022-12-15T06:21:38.798Z,17.67
2022-12-15T06:24:07.610Z,16.77
2022-12-15T06:26:37.039Z,15.50
2022-12-15T06:29:07.507Z,15.07
2022-12-15T06:31:36.170Z,16.30
2022-12-15T06:34:04.471Z,14.57
2022-12-15T06:36:31.999Z,31.60
2022-12-15T06:41:49.978Z,15.50
2022-12-15T06:44:17.825Z,12.20
2022-12-15T06:46:46.328Z,15.50
2022-12-15T06:49:14.755Z,18.87
2022-12-15T06:51:44.405Z,18.17
2022-12-15T06:54:12.097Z,14.97
2022-12-15T06:56:39.958Z,16.17
2022-12-15T07:02:02.169Z,18.13
2022-12-15T07:04:32.425Z,20.70
2022-12-15T07:06:59.818Z,14.90
2022-12-15T07:09:27.916Z,15.60
2022-12-15T07:11:55.247Z,16.03
2022-12-15T07:14:23.405Z,15.97
2022-12-15T07:16:50.839Z,13.50
2022-12-15T07:24:56.389Z,14.37
2022-12-15T07:27:23.785Z,15.23
2022-12-15T07:29:51.887Z,16.33
2022-12-15T07:32:19.867Z,15.60
2022-12-15T07:34:47.857Z,14.13
2022-12-15T07:37:16.312Z,13.93
2022-12-15T07:39:43.779Z,13.70
2022-12-15T07:49:40.317Z,13.90
2022-12-15T07:52:08.067Z,14.07
2022-12-15T07:54:35.987Z,13.83
2022-12-15T07:57:05.179Z,13.80
2022-12-15T07:59:33.213Z,11.53
2022-12-15T08:02:01.105Z,14.57
2022-12-15T08:04:28.845Z,13.17
2022-12-15T08:12:01.980Z,14.33
2022-12-15T08:14:29.586Z,13.40
2022-12-15T08:16:57.071Z,12.87
2022-12-15T08:19:24.517Z,12.47
2022-12-15T08:21:51.999Z,11.73
2022-12-15T08:24:20.017Z,14.40
2022-12-15T08:26:50.482Z,12.90
2022-12-15T08:37:08.716Z,11.20
2022-12-15T08:39:36.899Z,12.30
2022-12-15T08:42:04.639Z,12.40
2022-12-15T08:44:32.758Z,13.20
2022-12-15T08:47:00.026Z,13.80
2022-12-15T08:49:27.838Z,14.50
2022-12-15T08:51:55.286Z,14.33
2022-12-15T08:57:07.719Z,13.97
2022-12-15T08:59:35.387Z,12.43
2022-12-15T09:02:03.935Z,14.20
2022-12-15T09:04:31.717Z,16.60
2022-12-15T09:06:59.365Z,19.67
2022-12-15T09:09:27.903Z,17.73
2022-12-15T09:11:55.381Z,16.07
2022-12-15T09:20:55.277Z,15.77
2022-12-15T09:23:22.960Z,12.00
2022-12-15T09:25:50.817Z,14.20
2022-12-15T09:28:18.569Z,15.07
2022-12-15T09:30:46.467Z,13.47
2022-12-15T09:33:13.918Z,13.80
2022-12-15T09:35:41.938Z,13.50
2022-12-15T09:41:23.580Z,13.73
2022-12-15T09:43:58.015Z,13.37
2022-12-15T09:46:44.484Z,13.37
2022-12-15T09:49:33.401Z,12.53
2022-12-15T09:52:10.634Z,13.77
2022-12-15T09:54:41.110Z,13.90
2022-12-15T09:57:18.038Z,15.27
2022-12-15T10:04:58.037Z,14.57
2022-12-15T10:07:32.287Z,13.33
2022-12-15T10:09:59.800Z,13.23
2022-12-15T10:12:32.627Z,12.97
2022-12-15T10:15:12.982Z,15.07
2022-12-15T10:17:46.640Z,13.23
2022-12-15T10:20:25.878Z,13.33
2022-12-15T10:22:56.428Z,13.00
2022-12-15T10:28:42.699Z,13.47
2022-12-15T10:31:19.357Z,13.43
2022-12-15T10:33:55.371Z,14.40
2022-12-15T10:36:23.058Z,15.77
2022-12-15T10:38:51.147Z,13.10
2022-12-15T10:41:21.085Z,13.90
2022-12-15T10:43:51.160Z,12.47
2022-12-15T10:51:28.568Z,14.57
2022-12-15T10:54:13.100Z,14.27
2022-12-15T10:56:50.250Z,14.90
2022-12-15T10:59:26.105Z,13.20
2022-12-15T11:01:54.083Z,13.47
2022-12-15T11:04:31.599Z,14.33
2022-12-15T11:07:04.398Z,14.20
2022-12-15T11:09:38.761Z,12.87
2022-12-15T11:16:22.292Z,12.27
2022-12-15T11:18:53.885Z,13.40
2022-12-15T11:21:25.585Z,13.30
2022-12-15T11:24:02.699Z,12.83
2022-12-15T11:26:48.987Z,12.83
2022-12-15T11:29:28.025Z,13.33
2022-12-15T11:42:58.822Z,12.83
2022-12-15T11:45:38.941Z,14.10
2022-12-15T11:48:13.354Z,13.17
2022-12-15T11:50:51.769Z,12.33
2022-12-15T11:53:30.653Z,12.37
2022-12-15T11:56:08.122Z,15.87
2022-12-15T11:59:15.888Z,14.63
2022-12-15T12:07:08.684Z,15.63
2022-12-15T12:09:37.312Z,15.23
2022-12-15T12:12:22.179Z,12.57
2022-12-15T12:15:08.050Z,14.77
2022-12-15T12:17:42.763Z,13.33
2022-12-15T12:20:18.022Z,14.23
2022-12-15T12:22:55.842Z,13.63
2022-12-15T12:30:33.014Z,14.53
2022-12-15T12:33:10.837Z,16.40
2022-12-15T12:35:47.375Z,11.73
2022-12-15T12:38:31.234Z,12.17
2022-12-15T12:41:11.825Z,14.37
2022-12-15T12:43:44.966Z,14.30
2022-12-15T12:46:26.558Z,12.20
2022-12-15T12:54:01.393Z,12.80
2022-12-15T12:56:39.701Z,11.10
2022-12-15T12:59:36.894Z,12.87
2022-12-15T13:02:45.624Z,11.20
2022-12-15T13:05:26.274Z,14.93
2022-12-15T13:08:13.255Z,12.57
2022-12-15T13:13:51.333Z,15.10
2022-12-15T13:16:25.186Z,13.77
2022-12-15T13:19:12.622Z,14.83
2022-12-15T13:21:57.144Z,14.20
2022-12-15T13:24:47.126Z,22.47
2022-12-15T13:27:19.585Z,16.40
2022-12-15T13:35:23.775Z,14.73
2022-12-15T13:37:55.958Z,18.30
2022-12-15T13:40:35.658Z,15.43
2022-12-15T13:43:37.007Z,15.63
2022-12-15T13:46:13.654Z,13.40
2022-12-15T13:48:49.369Z,14.60
2022-12-15T13:51:30.780Z,14.83
2022-12-15T13:57:07.737Z,14.63
2022-12-15T13:59:42.928Z,13.93
2022-12-15T14:02:28.775Z,18.07
2022-12-15T14:05:28.855Z,15.90
2022-12-15T14:08:00.478Z,15.43
2022-12-15T14:10:39.098Z,14.27
2022-12-15T14:13:16.254Z,15.77
2022-12-15T14:20:30.457Z,19.70
2022-12-15T14:22:59.446Z,15.23
2022-12-15T14:25:30.290Z,15.70
2022-12-15T14:28:00.138Z,15.00
2022-12-15T14:30:32.694Z,15.10
2022-12-15T14:33:24.032Z,14.23
2022-12-15T14:35:58.574Z,15.57
2022-12-15T14:46:39.620Z,13.17
2022-12-15T14:49:39.199Z,11.77
2022-12-15T14:52:26.038Z,9.40
2022-12-15T14:54:59.845Z,7.60
2022-12-15T14:57:44.725Z,6.23
2022-12-15T15:00:27.816Z,7.30
2022-12-15T15:03:04.785Z,13.07
2022-12-15T15:08:48.651Z,13.77
2022-12-15T15:11:29.025Z,15.00
2022-12-15T15:14:00.525Z,14.80
2022-12-15T15:16:29.059Z,15.80
2022-12-15T15:19:01.197Z,16.43
2022-12-15T15:21:31.134Z,15.07
2022-12-15T15:24:06.177Z,15.00
2022-12-15T15:31:42.145Z,13.10
2022-12-15T15:34:13.104Z,9.87
2022-12-15T15:36:41.725Z,11.30
2022-12-15T15:39:21.276Z,9.20
2022-12-15T15:41:49.651Z,6.17
2022-12-15T15:44:17.715Z,5.13
2022-12-15T15:49:29.905Z,1.77
2022-12-15T15:51:59.975Z,2.40
2022-12-15T15:54:36.898Z,1.83
2022-12-15T15:57:10.667Z,1.30
2022-12-15T15:59:41.942Z,1.23
2022-12-15T16:02:12.195Z,1.30
2022-12-15T16:04:46.548Z,1.40
2022-12-15T16:15:26.086Z,1.40
2022-12-15T16:17:57.597Z,1.00
2022-12-15T16:20:30.814Z,0.73
2022-12-15T16:23:08.655Z,0.90
2022-12-15T16:25:50.121Z,1.03
2022-12-15T16:28:21.991Z,1.33
2022-12-15T16:30:53.653Z,1.50
2022-12-15T16:38:34.422Z,3.17
2022-12-15T16:41:06.681Z,3.20
2022-12-15T16:43:42.981Z,5.00
2022-12-15T16:46:22.857Z,6.87
2022-12-15T16:48:53.738Z,6.90
2022-12-15T16:51:31.785Z,8.27
2022-12-15T16:54:04.931Z,8.97
2022-12-15T17:01:39.866Z,9.80
2022-12-15T17:04:08.281Z,9.40
2022-12-15T17:06:35.935Z,8.33
2022-12-15T17:09:03.507Z,9.50
2022-12-15T17:11:32.454Z,9.63
2022-12-15T17:14:01.687Z,10.40
2022-12-15T17:16:29.537Z,10.93
2022-12-15T17:24:08.038Z,10.83
2022-12-15T17:26:38.143Z,12.30
2022-12-15T17:29:10.538Z,12.27
2022-12-15T17:31:38.991Z,13.63
2022-12-15T17:34:24.067Z,13.47
2022-12-15T17:36:52.239Z,14.00
2022-12-15T17:39:22.775Z,11.50
2022-12-15T17:44:47.973Z,12.73
2022-12-15T17:47:17.500Z,13.73
2022-12-15T17:49:46.585Z,13.77
2022-12-15T17:52:33.877Z,13.30
2022-12-15T17:55:03.078Z,12.77
2022-12-15T17:57:33.998Z,14.07
2022-12-15T18:00:16.167Z,12.63
2022-12-15T18:07:55.947Z,13.50
2022-12-15T18:10:30.686Z,12.03
2022-12-15T18:12:59.495Z,13.73
2022-12-15T18:15:29.417Z,14.27
2022-12-15T18:18:03.318Z,14.43
2022-12-15T18:20:31.665Z,13.67
2022-12-15T18:23:01.485Z,13.93
2022-12-15T18:31:22.520Z,14.20
2022-12-15T18:33:50.519Z,14.70
2022-12-15T18:36:19.428Z,13.90
2022-12-15T18:38:46.864Z,15.53
2022-12-15T18:41:16.647Z,15.27
2022-12-15T18:43:46.059Z,13.53
2022-12-15T18:46:14.425Z,14.77
2022-12-15T18:51:38.941Z,13.50
2022-12-15T18:54:07.528Z,14.93
2022-12-15T18:56:37.225Z,16.43
2022-12-15T18:59:08.066Z,15.70
2022-12-15T19:01:35.894Z,14.03
2022-12-15T19:04:03.917Z,16.53
2022-12-15T19:06:35.398Z,15.27
2022-12-15T19:12:16.808Z,12.67
2022-12-15T19:14:44.685Z,13.53
2022-12-15T19:17:31.024Z,14.40
2022-12-15T19:20:16.096Z,13.73
2022-12-15T19:22:44.055Z,13.03
2022-12-15T19:25:21.837Z,12.60
2022-12-15T19:27:59.796Z,12.17
2022-12-15T19:35:33.886Z,11.27
2022-12-15T19:38:04.250Z,12.33
2022-12-15T19:40:34.145Z,11.53
2022-12-15T19:43:03.837Z,11.17
2022-12-15T19:45:34.122Z,11.77
2022-12-15T19:48:05.906Z,12.67
2022-12-15T19:50:38.505Z,13.87
2022-12-15T19:53:12.197Z,13.93
2022-12-15T20:03:46.050Z,13.30
2022-12-15T20:06:17.469Z,13.93
2022-12-15T20:08:47.055Z,13.10
2022-12-15T20:11:18.986Z,13.67
2022-12-15T20:13:48.307Z,14.17
2022-12-15T20:16:18.314Z,13.80
2022-12-15T20:18:47.083Z,14.13
2022-12-15T20:26:22.104Z,15.53
2022-12-15T20:28:50.045Z,13.50
2022-12-15T20:31:20.148Z,13.50
2022-12-15T20:33:50.374Z,14.60
2022-12-15T20:36:21.076Z,14.20
2022-12-15T20:38:51.575Z,16.13
2022-12-15T20:41:24.484Z,13.70
2022-12-15T20:48:57.215Z,14.47
2022-12-15T20:51:27.184Z,13.30
2022-12-15T20:53:59.556Z,13.93
2022-12-15T20:56:28.619Z,12.67
2022-12-15T20:58:57.666Z,12.17
2022-12-15T21:01:27.849Z,13.03
2022-12-15T21:04:02.536Z,12.03
2022-12-15T21:06:30.972Z,11.73
2022-12-15T21:14:04.320Z,10.53
2022-12-15T21:16:32.048Z,11.23
2022-12-15T21:19:21.008Z,11.40
2022-12-15T21:21:52.717Z,10.07
2022-12-15T21:24:25.666Z,10.07
2022-12-15T21:26:53.786Z,9.67
2022-12-15T21:29:25.932Z,11.67
2022-12-15T21:31:54.109Z,10.47
2022-12-15T21:39:30.986Z,10.30
2022-12-15T21:42:01.244Z,10.03
2022-12-15T21:44:30.157Z,9.73
2022-12-15T21:46:58.528Z,9.00
2022-12-15T21:49:25.777Z,11.20
2022-12-15T21:51:57.030Z,10.50
2022-12-15T21:54:31.000Z,10.13
2022-12-15T21:56:59.607Z,9.90
2022-12-15T22:04:34.034Z,9.33
2022-12-15T22:07:01.827Z,9.43
2022-12-15T22:09:29.109Z,7.97
2022-12-15T22:11:57.627Z,8.93
2022-12-15T22:14:29.507Z,8.93
2022-12-15T22:16:58.057Z,9.37
2022-12-15T22:19:25.695Z,8.63
2022-12-15T22:21:54.406Z,7.93
2022-12-15T22:29:32.344Z,7.97
2022-12-15T22:32:00.357Z,8.83
2022-12-15T22:34:28.786Z,7.93
2022-12-15T22:36:56.196Z,8.00
2022-12-15T22:39:24.565Z,8.43
2022-12-15T22:41:53.077Z,7.63
2022-12-15T22:44:24.487Z,8.60
2022-12-15T22:51:56.885Z,7.17
2022-12-15T22:54:26.169Z,8.53
2022-12-15T22:56:58.264Z,6.97
2022-12-15T22:59:31.765Z,7.23
2022-12-15T23:02:00.731Z,8.17
2022-12-15T23:04:28.265Z,8.43
2022-12-15T23:14:13.117Z,7.63
2022-12-15T23:16:40.328Z,7.37
2022-12-15T23:19:08.146Z,8.23
2022-12-15T23:21:36.889Z,8.07
2022-12-15T23:24:05.471Z,8.27
2022-12-15T23:26:33.994Z,7.50
2022-12-15T23:29:01.586Z,8.17
2022-12-15T23:31:30.343Z,8.30
2022-12-15T23:39:06.928Z,7.97
2022-12-15T23:41:35.257Z,7.77
2022-12-15T23:44:02.714Z,7.07
2022-12-15T23:46:30.602Z,7.27
2022-12-15T23:48:59.524Z,7.23
2022-12-15T23:51:26.784Z,6.57
2022-12-15T23:53:54.836Z,6.13
2022-12-15T23:56:24.635Z,5.93
